sensor_id;sensor_type;location;lat;lon;timestamp;P1;durP1;ratioP1;P2;durP2;ratioP2
5257;SDS011;2651;51.594;9.928;2022-11-13T00:00:45;18.00;;;13.15;;
5257;SDS011;2651;51.594;9.928;2022-11-13T00:01:46;17.40;;;13.00;;
5257;SDS011;2651;51.594;9.928;2022-11-13T00:02:48;20.23;;;12.93;;
5257;SDS011;2651;51.594;9.928;2022-11-13T00:03:50;13.77;;;11.95;;
5257;SDS011;2651;51.594;9.928;2022-11-13T00:04:51;17.80;;;14.15;;
5257;SDS011;2651;51.594;9.928;2022-11-13T00:06:00;19.95;;;13.10;;
5257;SDS011;2651;51.594;9.928;2022-11-13T00:07:02;14.50;;;12.25;;
5257;SDS011;2651;51.594;9.928;2022-11-13T00:08:04;15.50;;;12.50;;
5257;SDS011;2651;51.594;9.928;2022-11-13T00:09:05;16.20;;;12.07;;
5257;SDS011;2651;51.594;9.928;2022-11-13T00:10:09;17.98;;;12.60;;
5257;SDS011;2651;51.594;9.928;2022-11-13T00:11:12;19.85;;;12.25;;
5257;SDS011;2651;51.594;9.928;2022-11-13T00:12:18;15.20;;;12.27;;
5257;SDS011;2651;51.594;9.928;2022-11-13T00:13:19;15.70;;;11.48;;
5257;SDS011;2651;51.594;9.928;2022-11-13T00:14:27;17.98;;;13.25;;
5257;SDS011;2651;51.594;9.928;2022-11-13T00:15:29;17.00;;;13.40;;
5257;SDS011;2651;51.594;9.928;2022-11-13T00:16:31;13.65;;;12.00;;
5257;SDS011;2651;51.594;9.928;2022-11-13T00:17:32;15.23;;;12.40;;
5257;SDS011;2651;51.594;9.928;2022-11-13T00:18:34;14.75;;;12.55;;
5257;SDS011;2651;51.594;9.928;2022-11-13T00:19:37;13.48;;;11.70;;
5257;SDS011;2651;51.594;9.928;2022-11-13T00:20:38;16.35;;;12.15;;
5257;SDS011;2651;51.594;9.928;2022-11-13T00:21:40;14.70;;;11.40;;
5257;SDS011;2651;51.594;9.928;2022-11-13T00:22:43;14.45;;;12.27;;
5257;SDS011;2651;51.594;9.928;2022-11-13T00:23:45;14.32;;;12.52;;
5257;SDS011;2651;51.594;9.928;2022-11-13T00:24:47;14.27;;;12.23;;
5257;SDS011;2651;51.594;9.928;2022-11-13T00:25:48;16.25;;;12.25;;
5257;SDS011;2651;51.594;9.928;2022-11-13T00:26:50;13.50;;;11.48;;
5257;SDS011;2651;51.594;9.928;2022-11-13T00:27:52;14.85;;;11.35;;
5257;SDS011;2651;51.594;9.928;2022-11-13T00:28:54;15.65;;;12.05;;
5257;SDS011;2651;51.594;9.928;2022-11-13T00:29:57;15.20;;;12.55;;
5257;SDS011;2651;51.594;9.928;2022-11-13T00:30:59;16.13;;;12.20;;
5257;SDS011;2651;51.594;9.928;2022-11-13T00:32:02;14.60;;;11.73;;
5257;SDS011;2651;51.594;9.928;2022-11-13T00:33:04;15.50;;;12.52;;
5257;SDS011;2651;51.594;9.928;2022-11-13T00:34:06;14.20;;;12.40;;
5257;SDS011;2651;51.594;9.928;2022-11-13T00:35:30;15.93;;;12.57;;
5257;SDS011;2651;51.594;9.928;2022-11-13T00:36:32;14.38;;;12.88;;
5257;SDS011;2651;51.594;9.928;2022-11-13T00:37:34;14.30;;;12.10;;
5257;SDS011;2651;51.594;9.928;2022-11-13T00:38:35;17.08;;;12.70;;
5257;SDS011;2651;51.594;9.928;2022-11-13T00:39:37;17.90;;;12.35;;
5257;SDS011;2651;51.594;9.928;2022-11-13T00:40:39;15.82;;;11.98;;
5257;SDS011;2651;51.594;9.928;2022-11-13T00:41:40;17.80;;;12.10;;
5257;SDS011;2651;51.594;9.928;2022-11-13T00:42:42;17.33;;;12.65;;
5257;SDS011;2651;51.594;9.928;2022-11-13T00:43:44;15.57;;;12.27;;
5257;SDS011;2651;51.594;9.928;2022-11-13T00:44:45;17.73;;;12.85;;
5257;SDS011;2651;51.594;9.928;2022-11-13T00:45:47;14.55;;;12.02;;
5257;SDS011;2651;51.594;9.928;2022-11-13T00:46:49;20.92;;;12.95;;
5257;SDS011;2651;51.594;9.928;2022-11-13T00:47:50;18.45;;;13.13;;
5257;SDS011;2651;51.594;9.928;2022-11-13T00:48:52;16.20;;;12.43;;
5257;SDS011;2651;51.594;9.928;2022-11-13T00:49:53;20.67;;;13.50;;
5257;SDS011;2651;51.594;9.928;2022-11-13T00:50:55;19.20;;;13.25;;
5257;SDS011;2651;51.594;9.928;2022-11-13T00:51:57;18.98;;;13.35;;
5257;SDS011;2651;51.594;9.928;2022-11-13T00:53:00;16.60;;;13.85;;
5257;SDS011;2651;51.594;9.928;2022-11-13T00:54:01;18.42;;;15.18;;
5257;SDS011;2651;51.594;9.928;2022-11-13T00:55:03;18.13;;;14.18;;
5257;SDS011;2651;51.594;9.928;2022-11-13T00:56:05;16.42;;;12.73;;
5257;SDS011;2651;51.594;9.928;2022-11-13T00:57:07;19.20;;;13.95;;
5257;SDS011;2651;51.594;9.928;2022-11-13T00:58:09;17.70;;;13.35;;
5257;SDS011;2651;51.594;9.928;2022-11-13T00:59:11;18.90;;;13.70;;
5257;SDS011;2651;51.594;9.928;2022-11-13T01:00:13;17.20;;;13.68;;
5257;SDS011;2651;51.594;9.928;2022-11-13T01:01:16;17.80;;;13.85;;
5257;SDS011;2651;51.594;9.928;2022-11-13T01:02:19;15.82;;;12.90;;
5257;SDS011;2651;51.594;9.928;2022-11-13T01:03:21;18.63;;;13.18;;
5257;SDS011;2651;51.594;9.928;2022-11-13T01:04:22;17.15;;;13.65;;
5257;SDS011;2651;51.594;9.928;2022-11-13T01:05:24;16.02;;;13.50;;
5257;SDS011;2651;51.594;9.928;2022-11-13T01:06:27;15.77;;;12.90;;
5257;SDS011;2651;51.594;9.928;2022-11-13T01:07:29;15.70;;;13.85;;
5257;SDS011;2651;51.594;9.928;2022-11-13T01:08:30;18.25;;;13.77;;
5257;SDS011;2651;51.594;9.928;2022-11-13T01:09:32;18.80;;;13.68;;
5257;SDS011;2651;51.594;9.928;2022-11-13T01:10:34;14.70;;;12.15;;
5257;SDS011;2651;51.594;9.928;2022-11-13T01:11:40;15.45;;;12.82;;
5257;SDS011;2651;51.594;9.928;2022-11-13T01:12:42;16.80;;;13.15;;
5257;SDS011;2651;51.594;9.928;2022-11-13T01:13:45;16.70;;;13.57;;
5257;SDS011;2651;51.594;9.928;2022-11-13T01:14:49;18.70;;;14.45;;
5257;SDS011;2651;51.594;9.928;2022-11-13T01:15:50;16.98;;;13.52;;
5257;SDS011;2651;51.594;9.928;2022-11-13T01:16:52;14.93;;;13.32;;
5257;SDS011;2651;51.594;9.928;2022-11-13T01:17:53;17.90;;;12.75;;
5257;SDS011;2651;51.594;9.928;2022-11-13T01:18:55;15.93;;;13.23;;
5257;SDS011;2651;51.594;9.928;2022-11-13T01:19:57;17.75;;;13.85;;
5257;SDS011;2651;51.594;9.928;2022-11-13T01:21:06;16.83;;;13.13;;
5257;SDS011;2651;51.594;9.928;2022-11-13T01:22:10;17.33;;;13.07;;
5257;SDS011;2651;51.594;9.928;2022-11-13T01:23:11;16.77;;;12.93;;
5257;SDS011;2651;51.594;9.928;2022-11-13T01:24:13;17.23;;;12.45;;
5257;SDS011;2651;51.594;9.928;2022-11-13T01:25:16;14.60;;;12.77;;
5257;SDS011;2651;51.594;9.928;2022-11-13T01:26:22;23.38;;;13.50;;
5257;SDS011;2651;51.594;9.928;2022-11-13T01:27:25;16.13;;;13.15;;
5257;SDS011;2651;51.594;9.928;2022-11-13T01:28:27;16.40;;;12.60;;
5257;SDS011;2651;51.594;9.928;2022-11-13T01:29:29;15.15;;;13.18;;
5257;SDS011;2651;51.594;9.928;2022-11-13T01:30:31;18.20;;;13.18;;
5257;SDS011;2651;51.594;9.928;2022-11-13T01:31:32;18.63;;;12.77;;
5257;SDS011;2651;51.594;9.928;2022-11-13T01:32:34;16.08;;;12.68;;
5257;SDS011;2651;51.594;9.928;2022-11-13T01:33:36;14.13;;;12.50;;
5257;SDS011;2651;51.594;9.928;2022-11-13T01:34:38;14.48;;;12.20;;
5257;SDS011;2651;51.594;9.928;2022-11-13T01:35:39;19.60;;;14.40;;
5257;SDS011;2651;51.594;9.928;2022-11-13T01:36:41;15.57;;;13.20;;
5257;SDS011;2651;51.594;9.928;2022-11-13T01:37:43;17.20;;;12.82;;
5257;SDS011;2651;51.594;9.928;2022-11-13T01:38:44;15.48;;;12.75;;
5257;SDS011;2651;51.594;9.928;2022-11-13T01:39:46;17.10;;;13.30;;
5257;SDS011;2651;51.594;9.928;2022-11-13T01:40:48;14.35;;;12.73;;
5257;SDS011;2651;51.594;9.928;2022-11-13T01:41:50;15.30;;;11.85;;
5257;SDS011;2651;51.594;9.928;2022-11-13T01:42:51;14.27;;;11.80;;
5257;SDS011;2651;51.594;9.928;2022-11-13T01:43:53;16.48;;;13.13;;
5257;SDS011;2651;51.594;9.928;2022-11-13T01:44:57;14.23;;;12.50;;
5257;SDS011;2651;51.594;9.928;2022-11-13T01:46:04;13.82;;;11.73;;
5257;SDS011;2651;51.594;9.928;2022-11-13T01:47:06;15.05;;;11.75;;
5257;SDS011;2651;51.594;9.928;2022-11-13T01:48:09;14.32;;;11.55;;
5257;SDS011;2651;51.594;9.928;2022-11-13T01:50:34;16.27;;;12.35;;
5257;SDS011;2651;51.594;9.928;2022-11-13T01:52:58;16.13;;;11.90;;
5257;SDS011;2651;51.594;9.928;2022-11-13T01:54:00;15.27;;;12.00;;
5257;SDS011;2651;51.594;9.928;2022-11-13T01:55:09;13.00;;;11.55;;
5257;SDS011;2651;51.594;9.928;2022-11-13T01:56:14;12.18;;;10.88;;
5257;SDS011;2651;51.594;9.928;2022-11-13T01:57:16;12.68;;;10.43;;
5257;SDS011;2651;51.594;9.928;2022-11-13T01:58:19;12.05;;;10.85;;
5257;SDS011;2651;51.594;9.928;2022-11-13T01:59:23;13.65;;;11.60;;
5257;SDS011;2651;51.594;9.928;2022-11-13T02:00:30;12.43;;;11.13;;
5257;SDS011;2651;51.594;9.928;2022-11-13T02:01:32;17.08;;;11.60;;
5257;SDS011;2651;51.594;9.928;2022-11-13T02:02:34;14.63;;;12.05;;
5257;SDS011;2651;51.594;9.928;2022-11-13T02:03:36;12.75;;;10.98;;
5257;SDS011;2651;51.594;9.928;2022-11-13T02:04:38;12.50;;;11.30;;
5257;SDS011;2651;51.594;9.928;2022-11-13T02:05:40;12.15;;;10.80;;
5257;SDS011;2651;51.594;9.928;2022-11-13T02:06:45;15.20;;;11.25;;
5257;SDS011;2651;51.594;9.928;2022-11-13T02:08:14;13.10;;;10.85;;
5257;SDS011;2651;51.594;9.928;2022-11-13T02:09:17;13.38;;;11.98;;
5257;SDS011;2651;51.594;9.928;2022-11-13T02:10:22;21.60;;;12.15;;
5257;SDS011;2651;51.594;9.928;2022-11-13T02:11:23;15.05;;;12.07;;
5257;SDS011;2651;51.594;9.928;2022-11-13T02:12:27;13.45;;;11.90;;
5257;SDS011;2651;51.594;9.928;2022-11-13T02:13:34;14.50;;;12.82;;
5257;SDS011;2651;51.594;9.928;2022-11-13T02:14:42;16.63;;;11.77;;
5257;SDS011;2651;51.594;9.928;2022-11-13T02:15:47;15.35;;;12.20;;
5257;SDS011;2651;51.594;9.928;2022-11-13T02:16:51;13.50;;;11.98;;
5257;SDS011;2651;51.594;9.928;2022-11-13T02:17:57;15.10;;;12.27;;
5257;SDS011;2651;51.594;9.928;2022-11-13T02:19:02;14.38;;;11.77;;
5257;SDS011;2651;51.594;9.928;2022-11-13T02:20:08;14.88;;;11.77;;
5257;SDS011;2651;51.594;9.928;2022-11-13T02:23:36;13.20;;;11.23;;
5257;SDS011;2651;51.594;9.928;2022-11-13T02:24:49;14.15;;;11.75;;
5257;SDS011;2651;51.594;9.928;2022-11-13T02:25:55;14.75;;;11.23;;
5257;SDS011;2651;51.594;9.928;2022-11-13T02:26:57;13.27;;;11.85;;
5257;SDS011;2651;51.594;9.928;2022-11-13T02:28:05;15.70;;;12.50;;
5257;SDS011;2651;51.594;9.928;2022-11-13T02:29:07;14.13;;;11.98;;
5257;SDS011;2651;51.594;9.928;2022-11-13T02:30:29;15.23;;;12.32;;
5257;SDS011;2651;51.594;9.928;2022-11-13T02:31:32;14.35;;;11.60;;
5257;SDS011;2651;51.594;9.928;2022-11-13T02:32:33;12.52;;;10.85;;
5257;SDS011;2651;51.594;9.928;2022-11-13T02:33:35;13.23;;;11.68;;
5257;SDS011;2651;51.594;9.928;2022-11-13T02:34:37;13.55;;;11.77;;
5257;SDS011;2651;51.594;9.928;2022-11-13T02:35:38;13.55;;;11.35;;
5257;SDS011;2651;51.594;9.928;2022-11-13T02:36:40;12.98;;;11.15;;
5257;SDS011;2651;51.594;9.928;2022-11-13T02:37:42;11.73;;;10.52;;
5257;SDS011;2651;51.594;9.928;2022-11-13T02:38:43;12.90;;;11.27;;
5257;SDS011;2651;51.594;9.928;2022-11-13T02:39:46;13.20;;;11.80;;
5257;SDS011;2651;51.594;9.928;2022-11-13T02:40:48;14.63;;;11.73;;
5257;SDS011;2651;51.594;9.928;2022-11-13T02:41:49;12.52;;;11.07;;
5257;SDS011;2651;51.594;9.928;2022-11-13T02:42:51;13.43;;;10.65;;
5257;SDS011;2651;51.594;9.928;2022-11-13T02:43:53;14.57;;;11.60;;
5257;SDS011;2651;51.594;9.928;2022-11-13T02:44:54;15.93;;;12.80;;
5257;SDS011;2651;51.594;9.928;2022-11-13T02:45:56;16.05;;;12.25;;
5257;SDS011;2651;51.594;9.928;2022-11-13T02:46:58;14.65;;;11.95;;
5257;SDS011;2651;51.594;9.928;2022-11-13T02:47:59;16.15;;;11.25;;
5257;SDS011;2651;51.594;9.928;2022-11-13T02:49:01;18.60;;;13.43;;
5257;SDS011;2651;51.594;9.928;2022-11-13T02:50:04;20.50;;;13.90;;
5257;SDS011;2651;51.594;9.928;2022-11-13T02:51:06;18.40;;;14.30;;
5257;SDS011;2651;51.594;9.928;2022-11-13T02:52:08;23.02;;;13.75;;
5257;SDS011;2651;51.594;9.928;2022-11-13T02:53:09;18.95;;;13.88;;
5257;SDS011;2651;51.594;9.928;2022-11-13T02:54:11;14.10;;;12.50;;
5257;SDS011;2651;51.594;9.928;2022-11-13T02:55:17;15.90;;;13.00;;
5257;SDS011;2651;51.594;9.928;2022-11-13T02:56:19;12.95;;;11.50;;
5257;SDS011;2651;51.594;9.928;2022-11-13T02:57:21;13.77;;;11.57;;
5257;SDS011;2651;51.594;9.928;2022-11-13T02:58:25;14.73;;;12.25;;
5257;SDS011;2651;51.594;9.928;2022-11-13T02:59:27;15.00;;;12.98;;
5257;SDS011;2651;51.594;9.928;2022-11-13T03:00:29;15.40;;;12.02;;
5257;SDS011;2651;51.594;9.928;2022-11-13T03:01:30;15.15;;;12.05;;
5257;SDS011;2651;51.594;9.928;2022-11-13T03:02:32;15.50;;;12.20;;
5257;SDS011;2651;51.594;9.928;2022-11-13T03:03:34;13.90;;;12.40;;
5257;SDS011;2651;51.594;9.928;2022-11-13T03:04:55;14.23;;;12.23;;
5257;SDS011;2651;51.594;9.928;2022-11-13T03:06:14;14.43;;;12.40;;
5257;SDS011;2651;51.594;9.928;2022-11-13T03:07:15;15.55;;;12.38;;
5257;SDS011;2651;51.594;9.928;2022-11-13T03:08:17;12.90;;;11.07;;
5257;SDS011;2651;51.594;9.928;2022-11-13T03:09:19;15.20;;;12.52;;
5257;SDS011;2651;51.594;9.928;2022-11-13T03:10:21;14.30;;;12.13;;
5257;SDS011;2651;51.594;9.928;2022-11-13T03:11:23;14.27;;;12.65;;
5257;SDS011;2651;51.594;9.928;2022-11-13T03:12:24;15.35;;;12.60;;
5257;SDS011;2651;51.594;9.928;2022-11-13T03:13:26;15.88;;;12.55;;
5257;SDS011;2651;51.594;9.928;2022-11-13T03:14:28;16.00;;;11.73;;
5257;SDS011;2651;51.594;9.928;2022-11-13T03:15:29;14.73;;;11.77;;
5257;SDS011;2651;51.594;9.928;2022-11-13T03:16:31;14.43;;;12.65;;
5257;SDS011;2651;51.594;9.928;2022-11-13T03:17:34;14.00;;;11.68;;
5257;SDS011;2651;51.594;9.928;2022-11-13T03:18:36;14.40;;;11.35;;
5257;SDS011;2651;51.594;9.928;2022-11-13T03:19:38;14.55;;;11.75;;
5257;SDS011;2651;51.594;9.928;2022-11-13T03:20:41;14.52;;;11.35;;
5257;SDS011;2651;51.594;9.928;2022-11-13T03:21:43;14.25;;;10.80;;
5257;SDS011;2651;51.594;9.928;2022-11-13T03:22:45;15.30;;;12.75;;
5257;SDS011;2651;51.594;9.928;2022-11-13T03:23:47;13.02;;;11.18;;
5257;SDS011;2651;51.594;9.928;2022-11-13T03:24:49;15.40;;;11.90;;
5257;SDS011;2651;51.594;9.928;2022-11-13T03:25:50;13.00;;;10.73;;
5257;SDS011;2651;51.594;9.928;2022-11-13T03:26:52;13.10;;;11.07;;
5257;SDS011;2651;51.594;9.928;2022-11-13T03:27:53;13.75;;;10.88;;
5257;SDS011;2651;51.594;9.928;2022-11-13T03:28:55;11.63;;;10.40;;
5257;SDS011;2651;51.594;9.928;2022-11-13T03:29:57;12.82;;;10.80;;
5257;SDS011;2651;51.594;9.928;2022-11-13T03:30:59;10.68;;;8.57;;
5257;SDS011;2651;51.594;9.928;2022-11-13T03:32:01;11.13;;;9.65;;
5257;SDS011;2651;51.594;9.928;2022-11-13T03:33:03;13.05;;;9.82;;
5257;SDS011;2651;51.594;9.928;2022-11-13T03:34:05;11.57;;;8.98;;
5257;SDS011;2651;51.594;9.928;2022-11-13T03:35:07;10.10;;;9.10;;
5257;SDS011;2651;51.594;9.928;2022-11-13T03:36:09;11.55;;;9.50;;
5257;SDS011;2651;51.594;9.928;2022-11-13T03:37:10;11.90;;;9.75;;
5257;SDS011;2651;51.594;9.928;2022-11-13T03:38:12;12.30;;;9.70;;
5257;SDS011;2651;51.594;9.928;2022-11-13T03:39:14;12.25;;;10.60;;
5257;SDS011;2651;51.594;9.928;2022-11-13T03:40:16;11.88;;;10.05;;
5257;SDS011;2651;51.594;9.928;2022-11-13T03:41:18;11.13;;;9.65;;
5257;SDS011;2651;51.594;9.928;2022-11-13T03:42:20;12.85;;;9.70;;
5257;SDS011;2651;51.594;9.928;2022-11-13T03:43:22;11.02;;;9.27;;
5257;SDS011;2651;51.594;9.928;2022-11-13T03:44:24;9.75;;;8.77;;
5257;SDS011;2651;51.594;9.928;2022-11-13T03:45:25;9.02;;;8.13;;
5257;SDS011;2651;51.594;9.928;2022-11-13T03:46:27;8.63;;;7.65;;
5257;SDS011;2651;51.594;9.928;2022-11-13T03:47:29;9.85;;;7.63;;
5257;SDS011;2651;51.594;9.928;2022-11-13T03:48:31;7.88;;;7.18;;
5257;SDS011;2651;51.594;9.928;2022-11-13T03:49:33;8.93;;;7.82;;
5257;SDS011;2651;51.594;9.928;2022-11-13T03:50:35;8.55;;;7.78;;
5257;SDS011;2651;51.594;9.928;2022-11-13T03:51:41;8.40;;;7.60;;
5257;SDS011;2651;51.594;9.928;2022-11-13T03:52:43;8.52;;;7.72;;
5257;SDS011;2651;51.594;9.928;2022-11-13T03:53:45;7.43;;;6.82;;
5257;SDS011;2651;51.594;9.928;2022-11-13T03:54:46;13.25;;;7.50;;
5257;SDS011;2651;51.594;9.928;2022-11-13T03:55:48;8.40;;;7.60;;
5257;SDS011;2651;51.594;9.928;2022-11-13T03:56:50;8.88;;;7.05;;
5257;SDS011;2651;51.594;9.928;2022-11-13T03:57:51;8.73;;;7.88;;
5257;SDS011;2651;51.594;9.928;2022-11-13T03:58:53;8.15;;;7.45;;
5257;SDS011;2651;51.594;9.928;2022-11-13T03:59:55;8.95;;;8.02;;
5257;SDS011;2651;51.594;9.928;2022-11-13T04:00:56;8.15;;;7.47;;
5257;SDS011;2651;51.594;9.928;2022-11-13T04:01:58;8.30;;;7.55;;
5257;SDS011;2651;51.594;9.928;2022-11-13T04:02:59;8.27;;;7.45;;
5257;SDS011;2651;51.594;9.928;2022-11-13T04:04:01;9.13;;;7.53;;
5257;SDS011;2651;51.594;9.928;2022-11-13T04:05:03;8.98;;;7.15;;
5257;SDS011;2651;51.594;9.928;2022-11-13T04:06:05;8.30;;;7.30;;
5257;SDS011;2651;51.594;9.928;2022-11-13T04:07:06;7.90;;;7.20;;
5257;SDS011;2651;51.594;9.928;2022-11-13T04:08:08;8.88;;;7.97;;
5257;SDS011;2651;51.594;9.928;2022-11-13T04:09:10;12.27;;;7.97;;
5257;SDS011;2651;51.594;9.928;2022-11-13T04:10:11;7.60;;;6.80;;
5257;SDS011;2651;51.594;9.928;2022-11-13T04:11:14;9.57;;;7.63;;
5257;SDS011;2651;51.594;9.928;2022-11-13T04:12:15;10.27;;;7.97;;
5257;SDS011;2651;51.594;9.928;2022-11-13T04:13:17;8.82;;;7.93;;
5257;SDS011;2651;51.594;9.928;2022-11-13T04:14:18;9.27;;;7.13;;
5257;SDS011;2651;51.594;9.928;2022-11-13T04:15:20;8.88;;;8.00;;
5257;SDS011;2651;51.594;9.928;2022-11-13T04:16:22;8.30;;;7.47;;
5257;SDS011;2651;51.594;9.928;2022-11-13T04:17:23;7.65;;;6.95;;
5257;SDS011;2651;51.594;9.928;2022-11-13T04:18:25;7.63;;;6.95;;
5257;SDS011;2651;51.594;9.928;2022-11-13T04:19:27;8.20;;;7.45;;
5257;SDS011;2651;51.594;9.928;2022-11-13T04:20:29;7.88;;;7.18;;
5257;SDS011;2651;51.594;9.928;2022-11-13T04:21:31;8.30;;;7.50;;
5257;SDS011;2651;51.594;9.928;2022-11-13T04:22:33;8.23;;;7.45;;
5257;SDS011;2651;51.594;9.928;2022-11-13T04:23:34;7.60;;;6.90;;
5257;SDS011;2651;51.594;9.928;2022-11-13T04:24:36;8.80;;;7.90;;
5257;SDS011;2651;51.594;9.928;2022-11-13T04:25:38;7.80;;;7.10;;
5257;SDS011;2651;51.594;9.928;2022-11-13T04:26:39;8.18;;;7.18;;
5257;SDS011;2651;51.594;9.928;2022-11-13T04:27:41;7.43;;;6.82;;
5257;SDS011;2651;51.594;9.928;2022-11-13T04:28:42;7.18;;;6.55;;
5257;SDS011;2651;51.594;9.928;2022-11-13T04:29:44;8.80;;;7.18;;
5257;SDS011;2651;51.594;9.928;2022-11-13T04:30:46;8.40;;;7.55;;
5257;SDS011;2651;51.594;9.928;2022-11-13T04:31:48;8.15;;;7.35;;
5257;SDS011;2651;51.594;9.928;2022-11-13T04:32:50;7.95;;;7.25;;
5257;SDS011;2651;51.594;9.928;2022-11-13T04:33:51;7.15;;;6.50;;
5257;SDS011;2651;51.594;9.928;2022-11-13T04:34:53;7.85;;;7.15;;
5257;SDS011;2651;51.594;9.928;2022-11-13T04:35:55;7.88;;;7.18;;
5257;SDS011;2651;51.594;9.928;2022-11-13T04:36:57;8.45;;;7.60;;
5257;SDS011;2651;51.594;9.928;2022-11-13T04:37:58;7.20;;;6.53;;
5257;SDS011;2651;51.594;9.928;2022-11-13T04:39:00;9.38;;;6.20;;
5257;SDS011;2651;51.594;9.928;2022-11-13T04:40:02;7.35;;;6.65;;
5257;SDS011;2651;51.594;9.928;2022-11-13T04:41:05;8.15;;;7.15;;
5257;SDS011;2651;51.594;9.928;2022-11-13T04:42:27;8.65;;;7.30;;
5257;SDS011;2651;51.594;9.928;2022-11-13T04:43:47;7.80;;;6.82;;
5257;SDS011;2651;51.594;9.928;2022-11-13T04:44:48;6.50;;;5.97;;
5257;SDS011;2651;51.594;9.928;2022-11-13T04:45:53;7.00;;;6.40;;
5257;SDS011;2651;51.594;9.928;2022-11-13T04:46:55;7.20;;;6.50;;
5257;SDS011;2651;51.594;9.928;2022-11-13T04:47:56;7.80;;;7.00;;
5257;SDS011;2651;51.594;9.928;2022-11-13T04:48:58;7.85;;;6.80;;
5257;SDS011;2651;51.594;9.928;2022-11-13T04:50:00;6.70;;;6.15;;
5257;SDS011;2651;51.594;9.928;2022-11-13T04:51:01;7.25;;;6.55;;
5257;SDS011;2651;51.594;9.928;2022-11-13T04:52:03;6.05;;;5.43;;
5257;SDS011;2651;51.594;9.928;2022-11-13T04:53:05;6.75;;;6.10;;
5257;SDS011;2651;51.594;9.928;2022-11-13T04:54:07;7.88;;;6.05;;
5257;SDS011;2651;51.594;9.928;2022-11-13T04:55:09;6.63;;;5.90;;
5257;SDS011;2651;51.594;9.928;2022-11-13T04:56:10;6.97;;;6.28;;
5257;SDS011;2651;51.594;9.928;2022-11-13T04:57:12;6.90;;;6.05;;
5257;SDS011;2651;51.594;9.928;2022-11-13T04:58:14;7.78;;;6.95;;
5257;SDS011;2651;51.594;9.928;2022-11-13T04:59:15;8.45;;;6.35;;
5257;SDS011;2651;51.594;9.928;2022-11-13T05:00:17;7.05;;;6.38;;
5257;SDS011;2651;51.594;9.928;2022-11-13T05:01:19;10.68;;;6.70;;
5257;SDS011;2651;51.594;9.928;2022-11-13T05:02:20;7.32;;;6.68;;
5257;SDS011;2651;51.594;9.928;2022-11-13T05:03:22;6.97;;;6.40;;
5257;SDS011;2651;51.594;9.928;2022-11-13T05:04:24;7.78;;;7.00;;
5257;SDS011;2651;51.594;9.928;2022-11-13T05:05:25;7.30;;;6.50;;
5257;SDS011;2651;51.594;9.928;2022-11-13T05:06:27;7.05;;;6.45;;
5257;SDS011;2651;51.594;9.928;2022-11-13T05:07:29;6.68;;;6.00;;
5257;SDS011;2651;51.594;9.928;2022-11-13T05:08:31;7.03;;;6.03;;
5257;SDS011;2651;51.594;9.928;2022-11-13T05:09:33;6.82;;;6.13;;
5257;SDS011;2651;51.594;9.928;2022-11-13T05:10:34;9.88;;;6.95;;
5257;SDS011;2651;51.594;9.928;2022-11-13T05:11:36;7.00;;;6.30;;
5257;SDS011;2651;51.594;9.928;2022-11-13T05:12:39;9.68;;;6.05;;
5257;SDS011;2651;51.594;9.928;2022-11-13T05:13:40;6.25;;;5.70;;
5257;SDS011;2651;51.594;9.928;2022-11-13T05:14:42;6.95;;;6.25;;
5257;SDS011;2651;51.594;9.928;2022-11-13T05:15:43;7.18;;;6.47;;
5257;SDS011;2651;51.594;9.928;2022-11-13T05:16:45;8.15;;;6.40;;
5257;SDS011;2651;51.594;9.928;2022-11-13T05:17:47;8.93;;;6.28;;
5257;SDS011;2651;51.594;9.928;2022-11-13T05:18:49;7.90;;;5.90;;
5257;SDS011;2651;51.594;9.928;2022-11-13T05:19:51;7.97;;;7.15;;
5257;SDS011;2651;51.594;9.928;2022-11-13T05:20:53;6.82;;;6.13;;
5257;SDS011;2651;51.594;9.928;2022-11-13T05:21:54;7.13;;;6.53;;
5257;SDS011;2651;51.594;9.928;2022-11-13T05:22:56;7.75;;;6.65;;
5257;SDS011;2651;51.594;9.928;2022-11-13T05:23:58;7.43;;;6.72;;
5257;SDS011;2651;51.594;9.928;2022-11-13T05:24:59;7.30;;;6.40;;
5257;SDS011;2651;51.594;9.928;2022-11-13T05:26:08;7.97;;;7.18;;
5257;SDS011;2651;51.594;9.928;2022-11-13T05:27:12;7.30;;;6.70;;
5257;SDS011;2651;51.594;9.928;2022-11-13T05:28:18;7.57;;;6.63;;
5257;SDS011;2651;51.594;9.928;2022-11-13T05:29:20;7.55;;;6.85;;
5257;SDS011;2651;51.594;9.928;2022-11-13T05:30:22;7.10;;;6.45;;
5257;SDS011;2651;51.594;9.928;2022-11-13T05:31:24;8.80;;;7.93;;
5257;SDS011;2651;51.594;9.928;2022-11-13T05:32:26;8.25;;;7.45;;
5257;SDS011;2651;51.594;9.928;2022-11-13T05:33:28;8.50;;;7.70;;
5257;SDS011;2651;51.594;9.928;2022-11-13T05:34:30;8.38;;;7.57;;
5257;SDS011;2651;51.594;9.928;2022-11-13T05:35:31;8.55;;;7.65;;
5257;SDS011;2651;51.594;9.928;2022-11-13T05:36:33;8.38;;;7.50;;
5257;SDS011;2651;51.594;9.928;2022-11-13T05:37:35;9.52;;;8.63;;
5257;SDS011;2651;51.594;9.928;2022-11-13T05:38:37;9.20;;;8.40;;
5257;SDS011;2651;51.594;9.928;2022-11-13T05:39:39;9.95;;;9.02;;
5257;SDS011;2651;51.594;9.928;2022-11-13T05:40:41;9.77;;;8.88;;
5257;SDS011;2651;51.594;9.928;2022-11-13T05:41:42;12.55;;;9.63;;
5257;SDS011;2651;51.594;9.928;2022-11-13T05:42:44;10.50;;;9.30;;
5257;SDS011;2651;51.594;9.928;2022-11-13T05:43:46;11.07;;;9.90;;
5257;SDS011;2651;51.594;9.928;2022-11-13T05:44:48;10.48;;;9.35;;
5257;SDS011;2651;51.594;9.928;2022-11-13T05:45:50;10.15;;;8.75;;
5257;SDS011;2651;51.594;9.928;2022-11-13T05:46:51;9.70;;;8.68;;
5257;SDS011;2651;51.594;9.928;2022-11-13T05:47:53;9.35;;;8.55;;
5257;SDS011;2651;51.594;9.928;2022-11-13T05:48:58;10.20;;;9.20;;
5257;SDS011;2651;51.594;9.928;2022-11-13T05:50:01;9.68;;;8.70;;
5257;SDS011;2651;51.594;9.928;2022-11-13T05:51:07;9.52;;;8.50;;
5257;SDS011;2651;51.594;9.928;2022-11-13T05:52:11;8.15;;;7.45;;
5257;SDS011;2651;51.594;9.928;2022-11-13T05:53:12;8.98;;;8.18;;
5257;SDS011;2651;51.594;9.928;2022-11-13T05:54:14;8.90;;;8.00;;
5257;SDS011;2651;51.594;9.928;2022-11-13T05:55:16;8.48;;;7.68;;
5257;SDS011;2651;51.594;9.928;2022-11-13T05:56:24;8.10;;;7.40;;
5257;SDS011;2651;51.594;9.928;2022-11-13T05:57:28;9.88;;;8.18;;
5257;SDS011;2651;51.594;9.928;2022-11-13T05:58:29;8.93;;;8.13;;
5257;SDS011;2651;51.594;9.928;2022-11-13T05:59:32;9.60;;;8.75;;
5257;SDS011;2651;51.594;9.928;2022-11-13T06:00:33;9.63;;;8.65;;
5257;SDS011;2651;51.594;9.928;2022-11-13T06:01:36;9.05;;;8.25;;
5257;SDS011;2651;51.594;9.928;2022-11-13T06:02:38;8.30;;;7.50;;
5257;SDS011;2651;51.594;9.928;2022-11-13T06:03:40;8.60;;;7.80;;
5257;SDS011;2651;51.594;9.928;2022-11-13T06:04:42;8.05;;;7.35;;
5257;SDS011;2651;51.594;9.928;2022-11-13T06:05:44;9.68;;;8.00;;
5257;SDS011;2651;51.594;9.928;2022-11-13T06:06:46;9.38;;;8.48;;
5257;SDS011;2651;51.594;9.928;2022-11-13T06:07:48;9.02;;;7.93;;
5257;SDS011;2651;51.594;9.928;2022-11-13T06:08:50;9.63;;;8.77;;
5257;SDS011;2651;51.594;9.928;2022-11-13T06:09:52;9.10;;;8.18;;
5257;SDS011;2651;51.594;9.928;2022-11-13T06:10:57;9.15;;;8.35;;
5257;SDS011;2651;51.594;9.928;2022-11-13T06:12:00;8.80;;;8.00;;
5257;SDS011;2651;51.594;9.928;2022-11-13T06:13:02;10.63;;;9.18;;
5257;SDS011;2651;51.594;9.928;2022-11-13T06:14:03;10.07;;;9.13;;
5257;SDS011;2651;51.594;9.928;2022-11-13T06:15:05;9.50;;;8.70;;
5257;SDS011;2651;51.594;9.928;2022-11-13T06:16:11;9.50;;;8.60;;
5257;SDS011;2651;51.594;9.928;2022-11-13T06:17:14;9.30;;;8.48;;
5257;SDS011;2651;51.594;9.928;2022-11-13T06:18:20;9.02;;;8.23;;
5257;SDS011;2651;51.594;9.928;2022-11-13T06:19:27;10.88;;;9.23;;
5257;SDS011;2651;51.594;9.928;2022-11-13T06:20:28;9.50;;;8.60;;
5257;SDS011;2651;51.594;9.928;2022-11-13T06:21:32;9.65;;;8.75;;
5257;SDS011;2651;51.594;9.928;2022-11-13T06:22:34;9.60;;;8.70;;
5257;SDS011;2651;51.594;9.928;2022-11-13T06:23:37;9.73;;;7.78;;
5257;SDS011;2651;51.594;9.928;2022-11-13T06:24:39;10.50;;;9.50;;
5257;SDS011;2651;51.594;9.928;2022-11-13T06:25:41;9.65;;;8.65;;
5257;SDS011;2651;51.594;9.928;2022-11-13T06:26:43;9.77;;;8.70;;
5257;SDS011;2651;51.594;9.928;2022-11-13T06:27:44;9.98;;;8.35;;
5257;SDS011;2651;51.594;9.928;2022-11-13T06:28:46;9.20;;;8.30;;